sensor_id;sensor_type;location;lat;lon;timestamp;pressure;altitude;pressure_sealevel;temperature;humidity
42297;BME280;28985;47.456;19.016;2022-11-15T00:00:55;100882.94;;;4.99;100.00
42297;BME280;28985;47.456;19.016;2022-11-15T00:03:25;100872.19;;;5.01;100.00
42297;BME280;28985;47.456;19.016;2022-11-15T00:05:51;100883.66;;;5.03;100.00
42297;BME280;28985;47.456;19.016;2022-11-15T00:08:18;100879.44;;;4.99;100.00
42297;BME280;28985;47.456;19.016;2022-11-15T00:10:55;100876.19;;;4.93;100.00
42297;BME280;28985;47.456;19.016;2022-11-15T00:13:22;100888.91;;;4.88;100.00
42297;BME280;28985;47.456;19.016;2022-11-15T00:15:49;100878.25;;;4.88;100.00
42297;BME280;28985;47.456;19.016;2022-11-15T00:18:16;100877.13;;;4.92;100.00
42297;BME280;28985;47.456;19.016;2022-11-15T00:20:43;100881.44;;;4.95;100.00
42297;BME280;28985;47.456;19.016;2022-11-15T00:23:10;100882.53;;;4.91;100.00
42297;BME280;28985;47.456;19.016;2022-11-15T00:25:36;100877.22;;;4.91;100.00
42297;BME280;28985;47.456;19.016;2022-11-15T00:28:05;100866.47;;;4.92;100.00
42297;BME280;28985;47.456;19.016;2022-11-15T00:30:31;100875.13;;;4.96;100.00
42297;BME280;28985;47.456;19.016;2022-11-15T00:33:05;100868.84;;;4.97;100.00
42297;BME280;28985;47.456;19.016;2022-11-15T00:35:33;100867.91;;;4.98;100.00
42297;BME280;28985;47.456;19.016;2022-11-15T00:38:00;100860.00;;;4.96;100.00
42297;BME280;28985;47.456;19.016;2022-11-15T00:40:27;100855.50;;;4.97;100.00
42297;BME280;28985;47.456;19.016;2022-11-15T00:42:54;100859.06;;;4.97;100.00
42297;BME280;28985;47.456;19.016;2022-11-15T00:45:20;100859.06;;;4.97;100.00
42297;BME280;28985;47.456;19.016;2022-11-15T00:47:47;100858.84;;;5.01;100.00
42297;BME280;28985;47.456;19.016;2022-11-15T00:50:13;100858.00;;;5.00;100.00
42297;BME280;28985;47.456;19.016;2022-11-15T00:52:41;100866.78;;;5.02;100.00
42297;BME280;28985;47.456;19.016;2022-11-15T00:55:13;100860.41;;;5.05;100.00
42297;BME280;28985;47.456;19.016;2022-11-15T00:57:40;100863.84;;;5.07;100.00
42297;BME280;28985;47.456;19.016;2022-11-15T01:00:07;100860.13;;;5.09;100.00
42297;BME280;28985;47.456;19.016;2022-11-15T01:02:34;100858.41;;;5.08;100.00
42297;BME280;28985;47.456;19.016;2022-11-15T01:05:01;100845.81;;;5.10;100.00
42297;BME280;28985;47.456;19.016;2022-11-15T01:07:28;100849.28;;;5.13;100.00
42297;BME280;28985;47.456;19.016;2022-11-15T01:09:55;100842.91;;;5.15;100.00
42297;BME280;28985;47.456;19.016;2022-11-15T01:12:21;100844.63;;;5.16;100.00
42297;BME280;28985;47.456;19.016;2022-11-15T01:14:49;100836.78;;;5.13;100.00
42297;BME280;28985;47.456;19.016;2022-11-15T01:17:15;100825.06;;;5.16;100.00
42297;BME280;28985;47.456;19.016;2022-11-15T01:19:42;100818.59;;;5.20;100.00
42297;BME280;28985;47.456;19.016;2022-11-15T01:22:08;100821.84;;;5.25;100.00
42297;BME280;28985;47.456;19.016;2022-11-15T01:24:35;100819.09;;;5.27;100.00
42297;BME280;28985;47.456;19.016;2022-11-15T01:27:02;100817.38;;;5.26;100.00
42297;BME280;28985;47.456;19.016;2022-11-15T01:29:28;100813.78;;;5.27;100.00
42297;BME280;28985;47.456;19.016;2022-11-15T01:31:55;100811.84;;;5.29;100.00
42297;BME280;28985;47.456;19.016;2022-11-15T01:34:21;100816.31;;;5.28;100.00
42297;BME280;28985;47.456;19.016;2022-11-15T01:36:48;100819.78;;;5.30;100.00
42297;BME280;28985;47.456;19.016;2022-11-15T01:39:14;100812.59;;;5.31;100.00
42297;BME280;28985;47.456;19.016;2022-11-15T01:41:41;100817.88;;;5.32;100.00
42297;BME280;28985;47.456;19.016;2022-11-15T01:47:06;100806.91;;;5.37;100.00
42297;BME280;28985;47.456;19.016;2022-11-15T01:49:35;100812.16;;;5.38;100.00
42297;BME280;28985;47.456;19.016;2022-11-15T01:52:07;100803.09;;;5.41;100.00
42297;BME280;28985;47.456;19.016;2022-11-15T01:54:35;100798.50;;;5.43;100.00
42297;BME280;28985;47.456;19.016;2022-11-15T01:57:06;100800.25;;;5.44;100.00
42297;BME280;28985;47.456;19.016;2022-11-15T01:59:35;100807.31;;;5.45;100.00
42297;BME280;28985;47.456;19.016;2022-11-15T02:02:03;100799.38;;;5.44;100.00
42297;BME280;28985;47.456;19.016;2022-11-15T02:04:36;100799.38;;;5.44;100.00
42297;BME280;28985;47.456;19.016;2022-11-15T02:07:05;100800.91;;;5.48;100.00
42297;BME280;28985;47.456;19.016;2022-11-15T02:09:33;100798.50;;;5.43;100.00
42297;BME280;28985;47.456;19.016;2022-11-15T02:11:59;100790.41;;;5.45;100.00
42297;BME280;28985;47.456;19.016;2022-11-15T02:14:27;100794.91;;;5.44;100.00
42297;BME280;28985;47.456;19.016;2022-11-15T02:25:31;100777.16;;;5.43;100.00
42297;BME280;28985;47.456;19.016;2022-11-15T02:31:33;100778.78;;;5.46;100.00
42297;BME280;28985;47.456;19.016;2022-11-15T02:37:05;100761.63;;;5.50;100.00
42297;BME280;28985;47.456;19.016;2022-11-15T02:39:51;100762.50;;;5.50;100.00
42297;BME280;28985;47.456;19.016;2022-11-15T02:42:26;100764.38;;;5.48;100.00
42297;BME280;28985;47.456;19.016;2022-11-15T02:45:19;100752.19;;;5.44;100.00
42297;BME280;28985;47.456;19.016;2022-11-15T02:47:50;100764.66;;;5.44;100.00
42297;BME280;28985;47.456;19.016;2022-11-15T02:50:21;100766.47;;;5.43;100.00
42297;BME280;28985;47.456;19.016;2022-11-15T02:52:51;100770.00;;;5.44;100.00
42297;BME280;28985;47.456;19.016;2022-11-15T02:58:47;100771.94;;;5.42;100.00
42297;BME280;28985;47.456;19.016;2022-11-15T03:04:32;100773.06;;;5.37;100.00
42297;BME280;28985;47.456;19.016;2022-11-15T03:07:18;100771.16;;;5.40;100.00
42297;BME280;28985;47.456;19.016;2022-11-15T03:10:24;100765.72;;;5.41;100.00
42297;BME280;28985;47.456;19.016;2022-11-15T03:12:57;100773.72;;;5.41;100.00
42297;BME280;28985;47.456;19.016;2022-11-15T03:15:30;100762.19;;;5.41;100.00
42297;BME280;28985;47.456;19.016;2022-11-15T03:18:03;100758.75;;;5.38;100.00
42297;BME280;28985;47.456;19.016;2022-11-15T03:20:31;100758.75;;;5.38;100.00
42297;BME280;28985;47.456;19.016;2022-11-15T03:23:05;100758.75;;;5.38;100.00
42297;BME280;28985;47.456;19.016;2022-11-15T03:25:34;100754.47;;;5.36;100.00
42297;BME280;28985;47.456;19.016;2022-11-15T03:28:04;100741.03;;;5.37;100.00
42297;BME280;28985;47.456;19.016;2022-11-15T03:30:33;100743.59;;;5.39;100.00
42297;BME280;28985;47.456;19.016;2022-11-15T03:33:02;100741.78;;;5.40;100.00
42297;BME280;28985;47.456;19.016;2022-11-15T03:35:34;100746.06;;;5.42;100.00
42297;BME280;28985;47.456;19.016;2022-11-15T03:38:25;100739.97;;;5.40;100.00
42297;BME280;28985;47.456;19.016;2022-11-15T03:40:59;100741.38;;;5.46;100.00
42297;BME280;28985;47.456;19.016;2022-11-15T03:46:13;100736.84;;;5.48;100.00
42297;BME280;28985;47.456;19.016;2022-11-15T03:48:43;100730.63;;;5.47;100.00
42297;BME280;28985;47.456;19.016;2022-11-15T03:51:13;100724.31;;;5.48;100.00
42297;BME280;28985;47.456;19.016;2022-11-15T03:53:40;100722.63;;;5.47;100.00
42297;BME280;28985;47.456;19.016;2022-11-15T03:56:07;100707.47;;;5.48;100.00
42297;BME280;28985;47.456;19.016;2022-11-15T03:58:33;100706.50;;;5.49;100.00
42297;BME280;28985;47.456;19.016;2022-11-15T04:01:00;100703.75;;;5.50;100.00
42297;BME280;28985;47.456;19.016;2022-11-15T04:03:27;100706.50;;;5.49;100.00
42297;BME280;28985;47.456;19.016;2022-11-15T04:05:53;100708.13;;;5.51;100.00
42297;BME280;28985;47.456;19.016;2022-11-15T04:08:20;100697.34;;;5.53;100.00
42297;BME280;28985;47.456;19.016;2022-11-15T04:10:49;100695.44;;;5.55;100.00
42297;BME280;28985;47.456;19.016;2022-11-15T04:13:15;100691.13;;;5.53;100.00
42297;BME280;28985;47.456;19.016;2022-11-15T04:15:42;100707.81;;;5.56;100.00
42297;BME280;28985;47.456;19.016;2022-11-15T04:18:08;100702.56;;;5.55;100.00
42297;BME280;28985;47.456;19.016;2022-11-15T04:20:35;100710.78;;;5.51;100.00
42297;BME280;28985;47.456;19.016;2022-11-15T04:23:22;100705.63;;;5.48;100.00
42297;BME280;28985;47.456;19.016;2022-11-15T04:26:11;100710.22;;;5.46;100.00
42297;BME280;28985;47.456;19.016;2022-11-15T04:28:38;100707.63;;;5.45;100.00
42297;BME280;28985;47.456;19.016;2022-11-15T04:31:23;100717.56;;;5.43;100.00
42297;BME280;28985;47.456;19.016;2022-11-15T04:33:50;100703.09;;;5.47;100.00
42297;BME280;28985;47.456;19.016;2022-11-15T04:36:17;100704.00;;;5.46;100.00
42297;BME280;28985;47.456;19.016;2022-11-15T04:39:02;100690.78;;;5.44;100.00
42297;BME280;28985;47.456;19.016;2022-11-15T04:41:29;100689.91;;;5.44;100.00
42297;BME280;28985;47.456;19.016;2022-11-15T04:43:56;100684.56;;;5.44;100.00
42297;BME280;28985;47.456;19.016;2022-11-15T04:46:23;100681.25;;;5.40;100.00
42297;BME280;28985;47.456;19.016;2022-11-15T04:48:50;100674.94;;;5.41;100.00
42297;BME280;28985;47.456;19.016;2022-11-15T04:51:24;100666.34;;;5.36;100.00
42297;BME280;28985;47.456;19.016;2022-11-15T04:53:50;100666.25;;;5.37;100.00
42297;BME280;28985;47.456;19.016;2022-11-15T04:56:17;100671.41;;;5.41;100.00
42297;BME280;28985;47.456;19.016;2022-11-15T04:58:43;100676.38;;;5.47;100.00
42297;BME280;28985;47.456;19.016;2022-11-15T05:01:11;100674.47;;;5.49;100.00
42297;BME280;28985;47.456;19.016;2022-11-15T05:03:41;100672.75;;;5.48;100.00
42297;BME280;28985;47.456;19.016;2022-11-15T05:06:26;100680.63;;;5.49;100.00
42297;BME280;28985;47.456;19.016;2022-11-15T05:08:54;100671.69;;;5.50;100.00
42297;BME280;28985;47.456;19.016;2022-11-15T05:11:21;100676.91;;;5.52;100.00
42297;BME280;28985;47.456;19.016;2022-11-15T05:13:48;100680.28;;;5.56;100.00
42297;BME280;28985;47.456;19.016;2022-11-15T05:16:14;100682.66;;;5.60;100.00
42297;BME280;28985;47.456;19.016;2022-11-15T05:18:41;100684.19;;;5.64;100.00
42297;BME280;28985;47.456;19.016;2022-11-15T05:21:10;100688.44;;;5.67;100.00
42297;BME280;28985;47.456;19.016;2022-11-15T05:23:37;100691.78;;;5.71;100.00
42297;BME280;28985;47.456;19.016;2022-11-15T05:26:05;100680.25;;;5.70;100.00
42297;BME280;28985;47.456;19.016;2022-11-15T05:28:35;100682.81;;;5.72;100.00
42297;BME280;28985;47.456;19.016;2022-11-15T05:31:15;100682.81;;;5.72;100.00
42297;BME280;28985;47.456;19.016;2022-11-15T05:33:43;100680.16;;;5.72;100.00
42297;BME280;28985;47.456;19.016;2022-11-15T05:38:44;100684.22;;;5.77;100.00
42297;BME280;28985;47.456;19.016;2022-11-15T05:41:12;100671.66;;;5.80;100.00
42297;BME280;28985;47.456;19.016;2022-11-15T05:43:40;100675.81;;;5.84;100.00
42297;BME280;28985;47.456;19.016;2022-11-15T05:46:07;100671.44;;;5.83;100.00
42297;BME280;28985;47.456;19.016;2022-11-15T05:48:35;100667.78;;;5.84;100.00
42297;BME280;28985;47.456;19.016;2022-11-15T05:51:04;100674.84;;;5.85;100.00
42297;BME280;28985;47.456;19.016;2022-11-15T05:53:33;100677.25;;;5.89;100.00
42297;BME280;28985;47.456;19.016;2022-11-15T05:56:00;100676.84;;;5.96;100.00
42297;BME280;28985;47.456;19.016;2022-11-15T05:58:26;100677.59;;;5.98;100.00
42297;BME280;28985;47.456;19.016;2022-11-15T06:00:54;100675.88;;;5.97;100.00
42297;BME280;28985;47.456;19.016;2022-11-15T06:03:21;100671.41;;;5.97;100.00
42297;BME280;28985;47.456;19.016;2022-11-15T06:05:47;100659.66;;;6.00;100.00
42297;BME280;28985;47.456;19.016;2022-11-15T06:08:14;100654.31;;;6.00;100.00
42297;BME280;28985;47.456;19.016;2022-11-15T06:10:40;100655.16;;;6.00;100.00
42297;BME280;28985;47.456;19.016;2022-11-15T06:13:07;100648.84;;;6.01;100.00
42297;BME280;28985;47.456;19.016;2022-11-15T06:15:33;100663.06;;;6.02;100.00
42297;BME280;28985;47.456;19.016;2022-11-15T06:18:00;100667.41;;;6.04;100.00
42297;BME280;28985;47.456;19.016;2022-11-15T06:20:28;100662.81;;;6.07;100.00
42297;BME280;28985;47.456;19.016;2022-11-15T06:22:59;100663.66;;;6.07;100.00
42297;BME280;28985;47.456;19.016;2022-11-15T06:25:27;100667.09;;;6.09;100.00
42297;BME280;28985;47.456;19.016;2022-11-15T06:27:55;100675.00;;;6.11;100.00
42297;BME280;28985;47.456;19.016;2022-11-15T06:30:22;100668.69;;;6.12;100.00
42297;BME280;28985;47.456;19.016;2022-11-15T06:32:49;100669.56;;;6.12;100.00
42297;BME280;28985;47.456;19.016;2022-11-15T06:35:18;100663.91;;;6.17;100.00
42297;BME280;28985;47.456;19.016;2022-11-15T06:37:45;100663.03;;;6.16;100.00
42297;BME280;28985;47.456;19.016;2022-11-15T06:40:11;100653.97;;;6.19;100.00
42297;BME280;28985;47.456;19.016;2022-11-15T06:42:38;100664.66;;;6.19;100.00
42297;BME280;28985;47.456;19.016;2022-11-15T06:45:05;100670.78;;;6.21;100.00
42297;BME280;28985;47.456;19.016;2022-11-15T06:47:31;100677.63;;;6.25;100.00
42297;BME280;28985;47.456;19.016;2022-11-15T06:49:58;100670.47;;;6.26;100.00
42297;BME280;28985;47.456;19.016;2022-11-15T06:52:24;100664.16;;;6.27;100.00
42297;BME280;28985;47.456;19.016;2022-11-15T06:54:51;100663.19;;;6.28;100.00
42297;BME280;28985;47.456;19.016;2022-11-15T06:57:17;100666.63;;;6.30;100.00
42297;BME280;28985;47.456;19.016;2022-11-15T06:59:44;100679.13;;;6.29;100.00
42297;BME280;28985;47.456;19.016;2022-11-15T07:02:13;100674.44;;;6.33;100.00
42297;BME280;28985;47.456;19.016;2022-11-15T07:04:40;100678.63;;;6.37;100.00
42297;BME280;28985;47.456;19.016;2022-11-15T07:07:06;100659.81;;;6.39;100.00
42297;BME280;28985;47.456;19.016;2022-11-15T07:09:33;100663.00;;;6.44;100.00
42297;BME280;28985;47.456;19.016;2022-11-15T07:12:00;100655.94;;;6.43;100.00
42297;BME280;28985;47.456;19.016;2022-11-15T07:14:33;100651.16;;;6.48;100.00
42297;BME280;28985;47.456;19.016;2022-11-15T07:16:59;100651.78;;;6.52;100.00
42297;BME280;28985;47.456;19.016;2022-11-15T07:19:26;100645.28;;;6.56;100.00
42297;BME280;28985;47.456;19.016;2022-11-15T07:21:52;100647.00;;;6.57;100.00
42297;BME280;28985;47.456;19.016;2022-11-15T07:24:19;100641.53;;;6.58;100.00
42297;BME280;28985;47.456;19.016;2022-11-15T07:26:45;100646.66;;;6.62;100.00
42297;BME280;28985;47.456;19.016;2022-11-15T07:29:12;100651.09;;;6.63;100.00
42297;BME280;28985;47.456;19.016;2022-11-15T07:31:38;100655.38;;;6.65;100.00
42297;BME280;28985;47.456;19.016;2022-11-15T07:34:05;100650.75;;;6.67;100.00
42297;BME280;28985;47.456;19.016;2022-11-15T07:36:31;100648.81;;;6.69;100.00
42297;BME280;28985;47.456;19.016;2022-11-15T07:39:00;100647.97;;;6.69;100.00
42297;BME280;28985;47.456;19.016;2022-11-15T07:41:27;100644.97;;;6.74;100.00
42297;BME280;28985;47.456;19.016;2022-11-15T07:43:53;100649.25;;;6.76;100.00
42297;BME280;28985;47.456;19.016;2022-11-15T07:46:20;100643.50;;;6.82;100.00
42297;BME280;28985;47.456;19.016;2022-11-15T07:48:46;100633.53;;;6.84;100.00
42297;BME280;28985;47.456;19.016;2022-11-15T07:51:14;100649.38;;;6.88;100.00
42297;BME280;28985;47.456;19.016;2022-11-15T07:53:43;100656.34;;;6.90;100.00
42297;BME280;28985;47.456;19.016;2022-11-15T07:56:10;100651.81;;;6.91;100.00
42297;BME280;28985;47.456;19.016;2022-11-15T07:58:37;100638.25;;;6.94;100.00
42297;BME280;28985;47.456;19.016;2022-11-15T08:01:05;100647.97;;;6.95;100.00
42297;BME280;28985;47.456;19.016;2022-11-15T08:03:32;100642.09;;;7.03;100.00
42297;BME280;28985;47.456;19.016;2022-11-15T08:06:00;100638.13;;;7.08;100.00
42297;BME280;28985;47.456;19.016;2022-11-15T08:08:27;100646.78;;;7.12;100.00
42297;BME280;28985;47.456;19.016;2022-11-15T08:10:53;100641.22;;;7.15;100.00
42297;BME280;28985;47.456;19.016;2022-11-15T08:13:20;100632.13;;;7.18;100.00
42297;BME280;28985;47.456;19.016;2022-11-15T08:15:47;100632.13;;;7.18;100.00
42297;BME280;28985;47.456;19.016;2022-11-15T08:18:21;100624.00;;;7.19;100.00
42297;BME280;28985;47.456;19.016;2022-11-15T08:20:48;100624.81;;;7.20;100.00
42297;BME280;28985;47.456;19.016;2022-11-15T08:23:14;100610.59;;;7.19;100.00
42297;BME280;28985;47.456;19.016;2022-11-15T08:25:41;100611.56;;;7.18;100.00
42297;BME280;28985;47.456;19.016;2022-11-15T08:28:10;100612.31;;;7.20;100.00
42297;BME280;28985;47.456;19.016;2022-11-15T08:30:38;100614.88;;;7.22;100.00
42297;BME280;28985;47.456;19.016;2022-11-15T08:33:11;100614.25;;;7.18;100.00
42297;BME280;28985;47.456;19.016;2022-11-15T08:35:40;100624.00;;;7.19;100.00
42297;BME280;28985;47.456;19.016;2022-11-15T08:38:08;100614.88;;;7.22;100.00
42297;BME280;28985;47.456;19.016;2022-11-15T08:40:35;100613.91;;;7.23;100.00
42297;BME280;28985;47.456;19.016;2022-11-15T08:43:02;100604.91;;;7.24;100.00
42297;BME280;28985;47.456;19.016;2022-11-15T08:45:30;100605.78;;;7.24;100.00
42297;BME280;28985;47.456;19.016;2022-11-15T08:47:57;100594.19;;;7.24;100.00
42297;BME280;28985;47.456;19.016;2022-11-15T08:50:24;100593.47;;;7.22;100.00
42297;BME280;28985;47.456;19.016;2022-11-15T08:52:50;100590.78;;;7.22;100.00
42297;BME280;28985;47.456;19.016;2022-11-15T08:55:17;100594.28;;;7.22;100.00
42297;BME280;28985;47.456;19.016;2022-11-15T08:57:44;100590.53;;;7.25;100.00
42297;BME280;28985;47.456;19.016;2022-11-15T09:00:11;100593.13;;;7.27;100.00
42297;BME280;28985;47.456;19.016;2022-11-15T09:02:39;100589.78;;;7.36;100.00
42297;BME280;28985;47.456;19.016;2022-11-15T09:05:06;100591.25;;;7.40;100.00
42297;BME280;28985;47.456;19.016;2022-11-15T09:07:33;100585.44;;;7.46;100.00
42297;BME280;28985;47.456;19.016;2022-11-15T09:10:00;100576.13;;;7.52;100.00
42297;BME280;28985;47.456;19.016;2022-11-15T09:12:27;100568.16;;;7.63;100.00
42297;BME280;28985;47.456;19.016;2022-11-15T09:14:53;100571.97;;;7.72;100.00
42297;BME280;28985;47.456;19.016;2022-11-15T09:17:20;100564.19;;;7.81;100.00
42297;BME280;28985;47.456;19.016;2022-11-15T09:19:50;100560.22;;;7.86;100.00
42297;BME280;28985;47.456;19.016;2022-11-15T09:22:17;100558.53;;;7.97;100.00
42297;BME280;28985;47.456;19.016;2022-11-15T09:24:44;100557.59;;;7.98;100.00
42297;BME280;28985;47.456;19.016;2022-11-15T09:27:10;100563.69;;;8.00;100.00
42297;BME280;28985;47.456;19.016;2022-11-15T09:29:38;100567.84;;;8.04;100.00
42297;BME280;28985;47.456;19.016;2022-11-15T09:32:04;100565.78;;;8.08;100.00
42297;BME280;28985;47.456;19.016;2022-11-15T09:34:31;100566.41;;;8.11;100.00
42297;BME280;28985;47.456;19.016;2022-11-15T09:36:57;100556.28;;;8.15;100.00
42297;BME280;28985;47.456;19.016;2022-11-15T09:39:24;100561.41;;;8.18;100.00
42297;BME280;28985;47.456;19.016;2022-11-15T09:44:42;100551.06;;;8.25;100.00
42297;BME280;28985;47.456;19.016;2022-11-15T09:47:45;100557.16;;;8.27;100.00
42297;BME280;28985;47.456;19.016;2022-11-15T09:50:31;100550.59;;;8.31;100.00
42297;BME280;28985;47.456;19.016;2022-11-15T09:52:58;100552.91;;;8.36;100.00
42297;BME280;28985;47.456;19.016;2022-11-15T09:55:37;100552.91;;;8.36;100.00
42297;BME280;28985;47.456;19.016;2022-11-15T10:00:57;100543.91;;;8.37;100.00
42297;BME280;28985;47.456;19.016;2022-11-15T10:03:30;100540.75;;;8.31;100.00
42297;BME280;28985;47.456;19.016;2022-11-15T10:06:02;100535.47;;;8.30;100.00
42297;BME280;28985;47.456;19.016;2022-11-15T10:11:24;100536.56;;;8.27;100.00
42297;BME280;28985;47.456;19.016;2022-11-15T10:14:17;100524.75;;;8.30;100.00
42297;BME280;28985;47.456;19.016;2022-11-15T10:19:49;100513.53;;;8.36;100.00
42297;BME280;28985;47.456;19.016;2022-11-15T10:22:25;100509.88;;;8.37;100.00
42297;BME280;28985;47.456;19.016;2022-11-15T10:25:16;100514.28;;;8.38;100.00
42297;BME280;28985;47.456;19.016;2022-11-15T10:27:42;100511.72;;;8.37;100.00
42297;BME280;28985;47.456;19.016;2022-11-15T10:30:15;100507.19;;;8.37;100.00
42297;BME280;28985;47.456;19.016;2022-11-15T10:32:44;100497.22;;;8.39;100.00
42297;BME280;28985;47.456;19.016;2022-11-15T10:35:19;100492.97;;;8.37;99.90
42297;BME280;28985;47.456;19.016;2022-11-15T10:37:47;100492.97;;;8.37;100.00
42297;BME280;28985;47.456;19.016;2022-11-15T10:40:20;100495.50;;;8.38;99.98
42297;BME280;28985;47.456;19.016;2022-11-15T10:43:05;100489.91;;;8.41;100.00
42297;BME280;28985;47.456;19.016;2022-11-15T10:45:33;100487.22;;;8.41;100.00
42297;BME280;28985;47.456;19.016;2022-11-15T10:50:46;100482.56;;;8.32;98.28
42297;BME280;28985;47.456;19.016;2022-11-15T10:53:29;100478.44;;;8.28;98.23
42297;BME280;28985;47.456;19.016;2022-11-15T10:56:07;100468.53;;;8.28;98.50
42297;BME280;28985;47.456;19.016;2022-11-15T10:58:39;100467.44;;;8.31;98.96
42297;BME280;28985;47.456;19.016;2022-11-15T11:03:42;100450.53;;;8.30;99.41
42297;BME280;28985;47.456;19.016;2022-11-15T11:06:12;100450.97;;;8.36;100.00
42297;BME280;28985;47.456;19.016;2022-11-15T11:08:40;100450.63;;;8.29;98.67
42297;BME280;28985;47.456;19.016;2022-11-15T11:11:19;100449.53;;;8.31;99.36
42297;BME280;28985;47.456;19.016;2022-11-15T11:13:45;100450.16;;;8.35;100.00
42297;BME280;28985;47.456;19.016;2022-11-15T11:21:14;100436.25;;;8.30;98.64
42297;BME280;28985;47.456;19.016;2022-11-15T11:23:54;100435.53;;;8.28;98.23
42297;BME280;28985;47.456;19.016;2022-11-15T11:26:40;100440.13;;;8.26;98.18
42297;BME280;28985;47.456;19.016;2022-11-15T11:35:46;100421.84;;;8.19;98.66
42297;BME280;28985;47.456;19.016;2022-11-15T11:40:52;100430.63;;;8.10;97.34
42297;BME280;28985;47.456;19.016;2022-11-15T11:43:37;100422.94;;;8.05;97.87
42297;BME280;28985;47.456;19.016;2022-11-15T11:49:07;100418.81;;;8.01;98.56
42297;BME280;28985;47.456;19.016;2022-11-15T11:54:50;100415.84;;;7.93;99.20
42297;BME280;28985;47.456;19.016;2022-11-15T11:57:44;100410.47;;;7.93;99.19
42297;BME280;28985;47.456;19.016;2022-11-15T12:00:24;100406.00;;;7.93;99.82
42297;BME280;28985;47.456;19.016;2022-11-15T12:03:10;100401.34;;;7.96;100.00
42297;BME280;28985;47.456;19.016;2022-11-15T12:05:44;100386.03;;;7.98;100.00
42297;BME280;28985;47.456;19.016;2022-11-15T12:08:27;100384.06;;;8.00;100.00
42297;BME280;28985;47.456;19.016;2022-11-15T12:11:28;100379.69;;;7.99;100.00
42297;BME280;28985;47.456;19.016;2022-11-15T12:14:01;100379.69;;;7.99;100.00
42297;BME280;28985;47.456;19.016;2022-11-15T12:16:31;100380.41;;;8.01;100.00
42297;BME280;28985;47.456;19.016;2022-11-15T12:19:02;100373.84;;;8.05;100.00
42297;BME280;28985;47.456;19.016;2022-11-15T12:21:55;100367.50;;;8.06;100.00
42297;BME280;28985;47.456;19.016;2022-11-15T12:24:28;100359.19;;;8.09;100.00
42297;BME280;28985;47.456;19.016;2022-11-15T12:27:07;100360.91;;;8.10;100.00
42297;BME280;28985;47.456;19.016;2022-11-15T12:29:40;100366.50;;;8.07;100.00
42297;BME280;28985;47.456;19.016;2022-11-15T12:32:28;100361.41;;;8.04;100.00
42297;BME280;28985;47.456;19.016;2022-11-15T12:34:56;100355.28;;;8.02;99.66
42297;BME280;28985;47.456;19.016;2022-11-15T12:45:34;100339.59;;;7.97;100.00
42297;BME280;28985;47.456;19.016;2022-11-15T12:56:20;100327.88;;;7.98;100.00
42297;BME280;28985;47.456;19.016;2022-11-15T12:58:57;100327.16;;;7.96;100.00
42297;BME280;28985;47.456;19.016;2022-11-15T13:12:00;100334.31;;;7.84;100.00
42297;BME280;28985;47.456;19.016;2022-11-15T13:22:51;100330.56;;;7.98;100.00
42297;BME280;28985;47.456;19.016;2022-11-15T13:25:25;100315.56;;;7.96;100.00
42297;BME280;28985;47.456;19.016;2022-11-15T13:27:54;100310.97;;;7.98;100.00
42297;BME280;28985;47.456;19.016;2022-11-15T13:30:29;100309.72;;;8.02;100.00
42297;BME280;28985;47.456;19.016;2022-11-15T13:33:05;100312.66;;;7.99;100.00
42297;BME280;28985;47.456;19.016;2022-11-15T13:35:40;100303.88;;;7.97;100.00
42297;BME280;28985;47.456;19.016;2022-11-15T13:38:39;100302.78;;;7.99;100.00
42297;BME280;28985;47.456;19.016;2022-11-15T13:41:18;100298.28;;;8.00;100.00
42297;BME280;28985;47.456;19.016;2022-11-15T13:43:48;100288.53;;;7.99;100.00
42297;BME280;28985;47.456;19.016;2022-11-15T13:46:26;100276.34;;;7.95;100.00
42297;BME280;28985;47.456;19.016;2022-11-15T13:48:59;100287.44;;;7.90;100.00
42297;BME280;28985;47.456;19.016;2022-11-15T13:51:34;100282.91;;;7.90;100.00
42297;BME280;28985;47.456;19.016;2022-11-15T13:57:03;100283.66;;;7.81;100.00
42297;BME280;28985;47.456;19.016;2022-11-15T13:59:35;100275.63;;;7.81;100.00
42297;BME280;28985;47.456;19.016;2022-11-15T14:02:14;100284.50;;;7.82;100.00
42297;BME280;28985;47.456;19.016;2022-11-15T14:04:49;100276.72;;;7.78;100.00
42297;BME280;28985;47.456;19.016;2022-11-15T14:07:19;100274.88;;;7.79;100.00
42297;BME280;28985;47.456;19.016;2022-11-15T14:09:47;100273.91;;;7.80;100.00
42297;BME280;28985;47.456;19.016;2022-11-15T14:14:48;100272.69;;;7.73;100.00
42297;BME280;28985;47.456;19.016;2022-11-15T14:17:41;100263.94;;;7.71;100.00
42297;BME280;28985;47.456;19.016;2022-11-15T14:20:36;100267.81;;;7.66;100.00
42297;BME280;28985;47.456;19.016;2022-11-15T14:23:25;100261.97;;;7.61;100.00
42297;BME280;28985;47.456;19.016;2022-11-15T14:25:56;100261.34;;;7.58;100.00
42297;BME280;28985;47.456;19.016;2022-11-15T14:30:52;100252.34;;;7.59;100.00
42297;BME280;28985;47.456;19.016;2022-11-15T14:33:28;100240.91;;;7.57;100.00
42297;BME280;28985;47.456;19.016;2022-11-15T14:35:57;100235.91;;;7.52;100.00
42297;BME280;28985;47.456;19.016;2022-11-15T14:38:25;100238.81;;;7.49;100.00
42297;BME280;28985;47.456;19.016;2022-11-15T14:40:52;100231.75;;;7.48;100.00
42297;BME280;28985;47.456;19.016;2022-11-15T14:43:20;100237.38;;;7.45;100.00
42297;BME280;28985;47.456;19.016;2022-11-15T14:45:46;100231.16;;;7.44;100.00
42297;BME280;28985;47.456;19.016;2022-11-15T14:48:13;100232.03;;;7.45;100.00